Airfield :
LOGIN :

Register | Disclaimer

   EN    FR    IT 

 










Legend :    VFR   Marginal VFR   IFR   Intensive IFR   Very Intensive IFR
Visi :
Ceiling :
>= 8 km
>= 3000ft
5 to 8 km
1000 to 3000 ft
1500m to 5 km
500 to 1000 ft
800 to 1500m
200 to 500 ft
< 800m
< 200 ft
Symbols :   Thunderstorms  Fog  Heavy snow  Heavy precipitations  Wind > 20 kt
SIGMETs :     Misc.  Thunderstorms  Icing  Turbulence  Mountain Waves  Volcanic Ashes






- Airport Elevation : 160 ft
- IATA code : FMO


EDDG - Münster Osnabrück Int.

CURRENT METAR :
  • 281720Z 24008KT 200V260 9999 -SHRA FEW030TCU BKN038 12/07 Q1007 TEMPO SHRA BKN020CB

EXPIRED METARs :
  • 281650Z 20010KT 170V240 9999 FEW039 13/07 Q1006 TEMPO SHRA BKN020CB
  • 281620Z 20009KT 9999 FEW044 13/07 Q1007 NOSIG
  • 281550Z 19009KT 160V220 9999 FEW042 13/07 Q1007 NOSIG
  • 281520Z 19009KT 160V230 9999 FEW044 13/07 Q1007 NOSIG
  • 281450Z 20011KT 170V250 9999 FEW038 14/07 Q1007 NOSIG
  • 281420Z 21011KT 160V240 9999 FEW033 14/08 Q1007 NOSIG

TAF TAF EDDG
Valid from the 28 at 12:00 until the 29 at 12:00 UTC


281100Z 2812/2912 21011KT 9999 BKN030
PROB30
TEMPO 2812/2814 21015G25KT TSRA SCT025CB
TEMPO 2820/2824 RA
PROB30
TEMPO 2821/2824 22015G25KT 4500 SHRA BKN020CB
TEMPO 2909/2912 24015G25KT



MET'MAP, your aeronautical weather chart ! - Copyright ORBIFLY December 2007 - Disclaimer

ORBIFLY MET'MAP TEAM :

Programming & Development : Alexandra Zaïnal
Concept & original design : Baudouin d'Aumeries
Assistance for programming : Marc-Olivier Méhu
Technical & hardware support : Manuel Goepfert

Contact : metmap@orbifly.com




SOURCES & CREDITS :

   NOAA